Downloads

-JavaCPC -demo -emu -j-cpc_ani -tools 0-9 A B C D E F G H I J K L M N O P Q R S T U V W X Y Z ZZZ_UNK roms
FILEDATESIZEDLs
KTris by Richard Wilson (PD).zip 2017-04-21 16:14 2 Kb37
Kaiser (G) (19xx).zip 2017-04-21 16:13 91 Kb39
Kane & Nebulus & Renaud - Marche a l'Ombre.zip 2017-04-21 16:13 95 Kb14
Kane (UK) (1986).zip 2017-04-21 16:13 28 Kb28
Kane (UK) (1986) [a1].zip 2017-04-21 16:13 80 Kb40
Kane (UK) (1986) [a2].zip 2017-04-21 16:13 38 Kb28
Kane (UK) (1986) [t1].zip 2017-04-21 16:13 38 Kb36
Karateka (F) (1986).zip 2017-04-21 16:13 50 Kb35
Karateka (F) (1986) [f1].zip 2017-04-21 16:13 50 Kb35
Karateka (F) (1986) [t1].zip 2017-04-21 16:13 50 Kb28
Karateka (F) (1990).zip 2017-04-21 16:13 49 Kb33
Karateka (F) (1990) [t1].zip 2017-04-21 16:13 49 Kb35
Karateka (F).dsk 2017-04-21 16:13 192 Kb41
Karl's Treasure Hunt (UK) (1984).zip 2017-04-21 16:13 11 Kb33
Karl's Treasure Hunt (UK) (1984) [a1].zip 2017-04-21 16:13 84 Kb36
Karl's Treasure Hunt (UK) (1984) [a2].zip 2017-04-21 16:13 11 Kb35
Karnov (E) - Disk 1A.dsk 2017-04-21 16:13 214 Kb31
Karnov (E) - Disk 1B.dsk 2017-04-21 16:13 214 Kb35
Karnov (UK) (1988) (Disk 1 of 2).zip 2017-04-21 16:13 73 Kb33
Karnov (UK) (1988) (Disk 1 of 2) [a1].zip 2017-04-21 16:13 56 Kb27
Karnov (UK) (1988) (Disk 1 of 2) [t1].zip 2017-04-21 16:13 159 Kb37
Karnov (UK) (1988) (Disk 1 of 2) [t2].zip 2017-04-21 16:13 73 Kb31
Karnov (UK) (1988) (Disk 2 of 2).zip 2017-04-21 16:13 62 Kb34
Karnov (UK) (1988) (Disk 2 of 2) [a1].zip 2017-04-21 16:13 105 Kb40
Karnov (UK) (1988) (Disk 2 of 2) [t2].zip 2017-04-21 16:13 62 Kb38
Kat Trap (E).dsk 2017-04-21 16:13 91 Kb37
Kat Trap (UK) (1987).zip 2017-04-21 16:13 34 Kb36
Keep Yourself Alive (F) (1987).zip 2017-04-21 16:13 19 Kb37
Kenny Dalglish Soccer Manager (E).cdt 2017-04-21 16:13 57 Kb36
Kenny Dalglish Soccer Manager (UK) (1989).zip 2017-04-21 16:13 25 Kb37
Kenny Dalglish Soccer Match (UK) (1990).zip 2017-04-21 16:13 29 Kb34
Kentilla (UK) (1985).zip 2017-04-21 16:13 23 Kb40
Kentilla (UK) (1985) [a1].zip 2017-04-21 16:13 30 Kb38
Kentucky Racing (E).cdt 2017-04-21 16:13 45 Kb43
Kentucky Racing (UK) (1990).zip 2017-04-21 16:13 24 Kb31
Kentucky Racing (UK) (1990) [f1].zip 2017-04-21 16:13 24 Kb38
Kessia (F) (19xx).zip 2017-04-21 16:13 72 Kb31
Kettle (E).dsk 2017-04-21 16:13 193 Kb34
Kettle (UK) (1986).zip 2017-04-21 16:13 21 Kb39
Kevin Thacker's CPC Guide (UK) (19xx) (PD) (Disk 1 of 2).zip 2017-04-21 16:13 47 Kb32
Kevin Thacker's CPC Guide (UK) (19xx) (PD) (Disk 2 of 2).zip 2017-04-21 16:13 41 Kb35
Key Factor, The (UK) (1985).zip 2017-04-21 16:13 13 Kb42
Kick Off (UK,F,G,S,I) (1990).zip 2017-04-21 16:13 27 Kb35
Kick Off (UK,F,G,S,I) (1990) [a1].zip 2017-04-21 16:13 131 Kb36
Kick Off (UK,F,G,S,I) (1990) [a2].zip 2017-04-21 16:13 31 Kb32
Kick Off 2 (E) - Disk 1A.dsk 2017-04-21 16:13 178 Kb39
Kick Off 2 (E) - Disk 1B.dsk 2017-04-21 16:13 178 Kb40
Kick Off 2 (F) (1990).zip 2017-04-21 16:13 68 Kb34
Kick Off 2 (F) (1990) [a1].zip 2017-04-21 16:13 68 Kb41
Kikstart II (UK) (1988).zip 2017-04-21 16:13 24 Kb39
Kikstart II (UK) (1988) [a1].zip 2017-04-21 16:13 23 Kb42
Killapede (UK) (1986).zip 2017-04-21 16:13 26 Kb32
Killapede (UK) (1986) [a1].zip 2017-04-21 16:13 26 Kb35
Killapede (UK) (1986) [a2].zip 2017-04-21 16:13 32 Kb38
Killapede (UK) (1986) [a3].zip 2017-04-21 16:13 30 Kb35
Killed Until Dead (UK) (1987) (Disk 1 of 2).zip 2017-04-21 16:13 50 Kb34
Killed Until Dead (UK) (1987) (Disk 2 of 2).zip 2017-04-21 16:13 62 Kb31
Killer Ball (UK) (1991).zip 2017-04-21 16:14 103 Kb33
Killer Ball (UK) (1991) [a1].zip 2017-04-21 16:13 103 Kb38
Killer Ball (UK) (1991) [a2].zip 2017-04-21 16:13 76 Kb37
Killer Ball (UK) (1991) [a3].zip 2017-04-21 16:13 96 Kb30
Killer Cobra (E).cdt 2017-04-21 16:14 49 Kb34
Killer Cobra (UK) (1987).zip 2017-04-21 16:14 27 Kb32
Killer Cobra (UK) (1987) [a1].zip 2017-04-21 16:14 27 Kb36
Killer Cobra (UK) (1987) [a2].zip 2017-04-21 16:14 31 Kb35
Killer Gorilla & Knight Lore & Laserwarp & Molecule Man & Zaxx (F).zip 2017-04-21 16:14 82 Kb19
Killer Gorilla (UK) (1984).zip 2017-04-21 16:14 19 Kb37
Killer Gorilla (UK) (1984) [a1].zip 2017-04-21 16:14 19 Kb37
Killer Gorilla (UK) (1984) [a2].zip 2017-04-21 16:14 15 Kb36
Killer Gorilla (UK) (1984) [a3].zip 2017-04-21 16:14 18 Kb33
Killer Gorilla (UK) (1984) [b1].zip 2017-04-21 16:14 19 Kb30
Killer Gorilla (UK) (1984) [b2].zip 2017-04-21 16:14 19 Kb34
Killer Ring (UK) (1987).zip 2017-04-21 16:14 16 Kb34
Killer Ring (UK) (1987) [a1].zip 2017-04-21 16:14 16 Kb36
Kiloroid (UK) (19xx).zip 2017-04-21 16:14 2 Kb34
Kim (F) (1986).zip 2017-04-21 16:14 9 Kb34
Kinetic (UK) (1987).zip 2017-04-21 16:14 35 Kb36
Kinetic (UK) (1987) [a1].zip 2017-04-21 16:14 36 Kb34
Kinetic (UK) (1987) [a2].zip 2017-04-21 16:14 35 Kb44
Kinetik (E).dsk 2017-04-21 16:14 195 Kb42
Kingdom of Hamil (UK) (1987).zip 2017-04-21 16:14 57 Kb36
Kingdoms (UK) (1985).zip 2017-04-21 16:14 5 Kb37
Kit de Telechargement - Telecharge Amstrad CPC (F).dsk 2017-04-21 16:14 217 Kb37
Kit de Telechargement pour Amstrad CPC (F).dsk 2017-04-21 16:14 191 Kb52
Klax & Meynaumede (F) & Nervous Break Down (F) & Skweek.zip 2017-04-21 16:14 97 Kb19
Klax (E).dsk 2017-04-21 16:14 172 Kb34
Klax (UK) (1990) (CPM).zip 2017-04-21 16:14 44 Kb30
Klax (UK) (1990) (CPM) [a1].zip 2017-04-21 16:14 44 Kb41
Klax (UK) (1990) (CPM Version).zip 2017-04-21 16:14 43 Kb33
Klax (UK) (1990) (CPM Version) [a1].zip 2017-04-21 16:14 43 Kb33
Klax (UK) (1990) (Cart).zip 2017-04-21 16:14 41 Kb36
Klax (UK) (1990).zip 2017-04-21 16:14 42 Kb32
Klax (UK) (1990) [a1].zip 2017-04-21 16:14 42 Kb36
Klax (UK) (1990) [h1].zip 2017-04-21 16:14 52 Kb32
Klax (UK) (1990) [h2].zip 2017-04-21 16:14 54 Kb37
Knaves and thou Prisoners (UK) (19xx).zip 2017-04-21 16:14 8 Kb34
Knight Force (F) (1989) (Disk 1 of 2).zip 2017-04-21 16:14 54 Kb36
Knight Force (F) (1989) (Disk 1 of 2) [t1].zip 2017-04-21 16:14 55 Kb33
Knight Force (F) (1989) (Disk 1 of 2) [t2] & Power Drift.zip 2017-04-21 16:14 108 Kb16
Knight Force (F) (1989) (Disk 1 of 2) [t2].zip 2017-04-21 16:14 75 Kb34
Knight Force (F) (1989) (Disk 2 of 2).zip 2017-04-21 16:14 76 Kb33
Knight Force (F) - Disk 1A.dsk 2017-04-21 16:14 456 Kb36
Knight Force (F) - Disk 1B.dsk 2017-04-21 16:14 627 Kb42
Knight Games (E) - Side A.cdt 2017-04-21 16:14 166 Kb41
Knight Games (E) - Side B.cdt 2017-04-21 16:14 142 Kb32
Knight Games (UK) (1986) (Disk 1 of 2).zip 2017-04-21 16:14 88 Kb38
Knight Games (UK) (1986) (Disk 1 of 2) [a1].zip 2017-04-21 16:14 83 Kb30
Knight Games (UK) (1986) (Disk 1 of 2) [a2].zip 2017-04-21 16:14 83 Kb36
Knight Games (UK) (1986) (Disk 1 of 2) [a3].zip 2017-04-21 16:14 103 Kb32
Knight Games (UK) (1986) (Disk 2 of 2).zip 2017-04-21 16:14 94 Kb33
Knight Games (UK) (1986) (Disk 2 of 2) [a1].zip 2017-04-21 16:14 76 Kb33
Knight Games (UK) (1986) (Disk 2 of 2) [a2].zip 2017-04-21 16:14 79 Kb32
Knight Games (UK) (1986) (Disk 2 of 2) [a3].zip 2017-04-21 16:14 109 Kb34
Knight Games (UK) (1986) [f1][t1].zip 2017-04-21 16:14 179 Kb34
Knight Lore (E).cdt 2017-04-21 16:14 42 Kb32
Knight Lore (UK) (1984).zip 2017-04-21 16:14 25 Kb34
Knight Lore (UK) (1984) [a1].zip 2017-04-21 16:14 25 Kb33
Knight Lore (UK) (1984) [a2].zip 2017-04-21 16:14 25 Kb40
Knight Moves (F) (19xx) (Disk 1 of 2).zip 2017-04-21 16:14 60 Kb34
Knight Moves (F) (19xx) (Disk 2 of 2).zip 2017-04-21 16:14 83 Kb33
Knight Orc (E) - Disk 1A.dsk 2017-04-21 16:14 194 Kb39
Knight Orc (E) - Disk 1B.dsk 2017-04-21 16:14 199 Kb41
Knight Orc (UK) (1987) (Disk 1 of 2).zip 2017-04-21 16:14 119 Kb36
Knight Orc (UK) (1987) (Disk 2 of 2).zip 2017-04-21 16:14 110 Kb35
Knight Rider (E).cdt 2017-04-21 16:14 45 Kb37
Knight Rider (UK) (1986).zip 2017-04-21 16:14 20 Kb30
Knight Rider (UK) (1986) [h1].zip 2017-04-21 16:14 32 Kb36
Knight Rider (UK) (1986) [h2].zip 2017-04-21 16:14 21 Kb32
Knight Tyme (E).cdt 2017-04-21 16:14 57 Kb39
Knight Tyme (UK) (1986).zip 2017-04-21 16:14 31 Kb38
Knight Tyme (UK) (1986) [a1].zip 2017-04-21 16:14 31 Kb37
Knight Tyme (UK) (1986) [t1].zip 2017-04-21 16:14 31 Kb29
Knightmare (E).dsk 2017-04-21 16:14 213 Kb42
Knightmare (UK) (1987).zip 2017-04-21 16:14 29 Kb37
Knightmare (UK) (1987) [a1].zip 2017-04-21 16:14 30 Kb31
Knightmare (UK) (1987) [a2].zip 2017-04-21 16:14 30 Kb36
Knightmare (UK) (1987) [t1].zip 2017-04-21 16:14 33 Kb34
Know (G).dsk 2017-04-21 16:14 192 Kb42
Kobayashi Naru (UK) (19xx).zip 2017-04-21 16:14 31 Kb35
Kobayashi Naru (UK) (1987).zip 2017-04-21 16:14 31 Kb35
Kobayashi Naru (UK) (1987) [a1].zip 2017-04-21 16:14 31 Kb37
Kobayashi Naru (UK) (1987) [a2].zip 2017-04-21 16:14 48 Kb38
Kokotoni Wilf (UK) (19xx).zip 2017-04-21 16:14 137 Kb40
Kokotoni Wilf (UK) (19xx) [a1].zip 2017-04-21 16:14 35 Kb36
Kokotoni Wilf (UK) (19xx) [f1][t1].zip 2017-04-21 16:14 37 Kb35
Konami's Golf (UK) (1986).zip 2017-04-21 16:14 24 Kb31
Konami's Golf (UK) (1986) [a1].zip 2017-04-21 16:14 24 Kb34
Konami's Golf (UK) (1986) [a2].zip 2017-04-21 16:14 26 Kb32
Konami Coin-op Hits (UK) (19xx) (Disk 1 of 2).zip 2017-04-21 16:14 50 Kb33
Konami Coin-op Hits (UK) (19xx) (Disk 1 of 2) [a1].zip 2017-04-21 16:14 50 Kb32
Konami Coin-op Hits (UK) (19xx) (Disk 2 of 2).zip 2017-04-21 16:14 65 Kb33
Konami Coin-op Hits (UK) (19xx) (Disk 2 of 2) [a1].zip 2017-04-21 16:14 65 Kb37
Konami Coin-op Hits (UK) (19xx) (Disk 2 of 2) [a2].zip 2017-04-21 16:14 65 Kb33
Kong Strikes Back (UK) (1985).zip 2017-04-21 16:14 21 Kb41
Kong Strikes Back (UK) (1985) [a1].zip 2017-04-21 16:14 21 Kb36
Kong Strikes Back (UK) (1985) [a2].zip 2017-04-21 16:14 23 Kb33
Koronis Rift (E).dsk 2017-04-21 16:14 186 Kb41
Koronis Rift (UK) (1987).zip 2017-04-21 16:14 57 Kb36
Krakout (E).cdt 2017-04-21 16:14 64 Kb39
Krakout (E).dsk 2017-04-21 16:14 171 Kb38
Krakout (UK) (1987).zip 2017-04-21 16:14 31 Kb36
Krakout (UK) (1987) [h1].zip 2017-04-21 16:14 34 Kb30
Kristal (F).dsk 2017-04-21 16:14 191 Kb39
Kristal (UK) (1985).zip 2017-04-21 16:14 16 Kb36
Kristax (UK) (1989).zip 2017-04-21 16:14 9 Kb35
Krypton Factor (UK) (1987) (Disk 1 of 2).zip 2017-04-21 16:14 52 Kb30
Krypton Factor (UK) (1987) (Disk 1 of 2) [a1].zip 2017-04-21 16:14 47 Kb39
Krypton Factor (UK) (1987) (Disk 2 of 2).zip 2017-04-21 16:14 5 Kb33
Krypton Factor (UK) (1987) (Disk 2 of 2) [a1].zip 2017-04-21 16:14 21 Kb34
Kung-Fu (UK) (1986).zip 2017-04-21 16:14 19 Kb33
Kung-Fu Master (E).dsk 2017-04-21 16:14 191 Kb31
Kung-Fu Master (UK) (1986).zip 2017-04-21 16:14 28 Kb33
Kung-Fu Master (UK) (1986) [h1].zip 2017-04-21 16:14 22 Kb35
Kwah (UK) (1987).zip 2017-04-21 16:14 36 Kb28
Kwik Snax (E).cdt 2017-04-21 16:14 65 Kb45
Kwik Snax (UK) (1990).zip 2017-04-21 16:14 22 Kb30
Kwik Snax (UK) (1990) [f1].zip 2017-04-21 16:14 33 Kb37
Kwik Snax (UK) (1990) [h1].zip 2017-04-21 16:14 41 Kb38
Kwik Snax (UK) (1990) [t1].zip 2017-04-21 16:14 33 Kb31
kobayashi Naru (E).cdt 2017-04-21 16:14 74 Kb37
180 Files
-JavaCPC -demo -emu -j-cpc_ani -tools 0-9 A B C D E F G H I J K L M N O P Q R S T U V W X Y Z ZZZ_UNK roms